EDT,Max TemperatureF,Mean TemperatureF,Min TemperatureF,Max Dew PointF,MeanDew PointF,Min DewpointF,Max Humidity, Mean Humidity, Min Humidity, Max Sea Level PressureIn, Mean Sea Level PressureIn, Min Sea Level PressureIn, Max VisibilityMiles, Mean VisibilityMiles, Min VisibilityMiles, Max Wind SpeedMPH, Mean Wind SpeedMPH, Max Gust SpeedMPH,PrecipitationIn, CloudCover, Events, WindDirDegrees
2013-9-1,73,68,62,68,64,63,100,92,73,30.07,30.05,30.01,10,7,0,14,8,,0.00,3,Rain,270
2013-9-2,75,68,62,68,64,63,100,90,69,30.07,30.03,30.00,7,4,0,14,10,17,0.00,4,Rain,273
2013-9-3,71,64,57,64,60,54,100,88,56,30.17,30.06,29.99,10,7,0,16,9,25,0.29,4,Fog-Rain-Thunderstorm,289
2013-9-4,71,62,53,57,54,46,100,80,43,30.27,30.22,30.16,10,9,3,15,9,,0.00,0,,286
2013-9-5,71,63,55,59,54,41,94,76,56,30.30,30.26,30.24,10,10,10,16,11,23,0.00,0,,299
2013-9-6,66,58,51,55,52,48,100,81,64,30.34,30.30,30.27,10,10,5,10,4,,0.00,2,,121
2013-9-7,71,62,53,57,53,48,100,74,46,30.27,30.21,30.14,10,10,7,14,9,16,0.00,1,,258
2013-9-8,73,65,57,63,58,52,88,77,61,30.22,30.15,30.12,10,10,10,15,10,16,0.00,3,Rain,304
2013-9-9,68,64,60,64,62,61,100,98,88,30.34,30.29,30.22,10,2,0,12,5,18,0.00,7,Fog-Rain,139
2013-9-10,75,68,62,68,66,63,100,90,73,30.41,30.37,30.33,10,6,0,14,9,18,0.00,4,Fog-Rain,236
2013-9-11,78,72,66,68,66,63,100,87,61,30.40,30.35,30.27,10,9,0,12,8,,0.00,1,Rain-Thunderstorm,280
2013-9-12,73,66,60,68,64,59,100,92,64,30.26,30.13,29.98,10,4,0,18,11,25,0.00,6,Fog-Rain,280
2013-9-13,62,55,48,59,50,43,100,81,48,30.06,29.98,29.92,10,7,0,16,11,30,0.07,5,Fog-Rain,295
2013-9-14,60,50,41,46,43,39,100,79,55,30.25,30.15,30.05,10,10,10,13,7,17,0.00,1,,302
2013-9-15,66,56,46,55,49,43,93,80,64,30.31,30.27,30.24,10,10,10,13,6,17,0.00,1,,220
2013-9-16,57,54,50,57,52,45,100,90,76,30.36,30.26,30.21,10,10,5,16,11,23,0.00,4,Rain,298
2013-9-17,60,54,48,50,47,45,100,84,59,30.45,30.39,30.36,10,8,0,9,5,,0.00,5,Fog,93
2013-9-18,59,52,44,54,49,43,100,93,77,30.38,30.33,30.28,10,8,0,9,3,,0.00,6,Fog-Rain,165
2013-9-19,66,60,53,61,58,52,100,97,83,30.29,30.25,30.21,10,4,0,10,5,,0.04,7,Fog-Rain,248
2013-9-20,66,62,57,64,61,57,100,99,88,30.22,30.17,30.09,7,1,0,10,4,,0.00,8,Fog-Rain,212
2013-9-21,60,56,53,61,57,54,100,100,100,30.09,29.94,29.84,10,1,0,21,9,28,1.03,8,Fog-Rain,210
2013-9-22,62,55,48,52,48,45,100,86,59,30.06,29.96,29.89,10,9,0,12,7,16,0.02,4,Fog,324
2013-9-23,62,52,42,52,47,41,100,86,67,30.18,30.12,30.05,10,10,4,10,6,,0.00,1,,302
2013-9-24,66,56,46,57,52,46,100,91,68,30.17,30.13,30.08,10,6,0,10,6,,0.00,4,Fog-Rain,212
2013-9-25,59,55,51,55,54,52,100,96,77,30.10,30.05,30.01,10,6,0,7,3,,0.00,7,Fog-Rain,150
2013-9-26,64,58,51,54,51,45,100,80,67,30.20,30.11,30.03,10,9,0,8,3,,0.00,4,Fog-Rain,80
2013-9-27,64,56,48,52,48,45,100,76,56,30.31,30.25,30.19,10,10,10,7,3,,0.00,2,,120
2013-9-28,55,50,46,52,50,46,100,94,72,30.37,30.32,30.29,10,6,0,8,4,,0.00,6,Fog-Rain,107
2013-9-29,60,52,44,50,46,41,100,80,63,30.29,30.22,30.17,10,10,7,8,3,,0.00,4,,161
2013-9-30,64,56,48,54,50,45,94,80,68,30.19,30.17,30.14,10,10,10,10,6,,0.00,4,,268